Kimble County Airport
KJCT : now visible

Airfield :











YOU CAN JOIN US ON...

 
LOGIN :

Register | Disclaimer

   EN    FR    IT 

 









Legend :    VFR   Marginal VFR   IFR   Intensive IFR   Very Intensive IFR
Visi :
Ceiling :
>= 8 km
>= 3000ft
5 to 8 km
1000 to 3000 ft
1500m to 5 km
500 to 1000 ft
800 to 1500m
200 to 500 ft
< 800m
< 200 ft
Symbols :   Thunderstorms  Fog  Heavy snow  Heavy precipitations  Wind > 20 kt






- Airport Elevation : 1749 ft


KJCT - Kimble County

CURRENT METAR :
  • 291651Z AUTO 34015G30KT 10SM OVC033 12/04 A3026 RMK AO2 PK WND 33031/1604 SLP229 T01170039

EXPIRED METARs :
  • 291551Z AUTO 33019G29KT 10SM OVC030 11/04 A3025 RMK AO2 PK WND 32029/1543 RAE07 SLP226 P0000 T01060039
  • 291528Z AUTO 32016G26KT 10SM OVC030 11/04 A3023 RMK AO2 PK WND 33028/1454 RAE07 P0000 T01060039
  • 291451Z AUTO 34014G36KT 10SM -RA OVC029 09/03 A3022 RMK AO2 PK WND 35036/1433 RAB19 SLP218 P0000 60000 T00940033 53036

TAF KJCT
Valid from the 29 at 12:00 until the 30 at 12:00 UTC


291128Z 2912/3012 31013G20KT P6SM OVC035
FM292100 34014KT P6SM SCT040
FM300100 35003KT P6SM SKC
KZHU FIR / North America



MET'MAP, your aeronautical weather chart ! - Copyright ORBIFLY December 2007 - Disclaimer

ORBIFLY MET'MAP TEAM :

Programming & Development : Alexandra Zaïnal
Concept & original design : Baudouin d'Aumeries
Assistance for programming : Marc-Olivier Méhu
Technical & hardware support : Manuel Goepfert

Contact : metmap@orbifly.com




SOURCES & CREDITS :

   NOAA       Earth
Advisory